sensor_id;sensor_type;location;lat;lon;timestamp;temperature;humidity
62991;DHT22;49084;48.204;16.202;2024-02-15T00:02:02;7.50;99.90
62991;DHT22;49084;48.204;16.202;2024-02-15T00:04:28;7.50;99.90
62991;DHT22;49084;48.204;16.202;2024-02-15T00:06:54;7.50;99.90
62991;DHT22;49084;48.204;16.202;2024-02-15T00:09:19;7.40;99.90
62991;DHT22;49084;48.204;16.202;2024-02-15T00:11:45;7.40;99.90
62991;DHT22;49084;48.204;16.202;2024-02-15T00:14:11;7.30;99.90
62991;DHT22;49084;48.204;16.202;2024-02-15T00:16:37;7.30;99.90
62991;DHT22;49084;48.204;16.202;2024-02-15T00:19:03;7.20;99.90
62991;DHT22;49084;48.204;16.202;2024-02-15T00:21:28;7.10;99.90
62991;DHT22;49084;48.204;16.202;2024-02-15T00:23:54;7.10;99.90
62991;DHT22;49084;48.204;16.202;2024-02-15T00:26:22;7.10;99.90
62991;DHT22;49084;48.204;16.202;2024-02-15T00:28:47;7.00;99.90
62991;DHT22;49084;48.204;16.202;2024-02-15T00:31:14;6.90;99.90
62991;DHT22;49084;48.204;16.202;2024-02-15T00:33:40;6.80;99.90
62991;DHT22;49084;48.204;16.202;2024-02-15T00:36:06;6.70;99.90
62991;DHT22;49084;48.204;16.202;2024-02-15T00:38:32;6.60;99.90
62991;DHT22;49084;48.204;16.202;2024-02-15T00:40:58;6.50;99.90
62991;DHT22;49084;48.204;16.202;2024-02-15T00:43:26;6.50;99.90
62991;DHT22;49084;48.204;16.202;2024-02-15T00:45:51;6.40;99.90
62991;DHT22;49084;48.204;16.202;2024-02-15T00:48:17;6.40;99.90
62991;DHT22;49084;48.204;16.202;2024-02-15T00:50:43;6.30;99.90
62991;DHT22;49084;48.204;16.202;2024-02-15T00:53:08;6.30;99.90
62991;DHT22;49084;48.204;16.202;2024-02-15T00:55:34;6.20;99.90
62991;DHT22;49084;48.204;16.202;2024-02-15T00:57:59;6.10;99.90
62991;DHT22;49084;48.204;16.202;2024-02-15T01:00:25;6.10;99.90
62991;DHT22;49084;48.204;16.202;2024-02-15T01:02:51;6.00;99.90
62991;DHT22;49084;48.204;16.202;2024-02-15T01:05:18;6.00;99.90
62991;DHT22;49084;48.204;16.202;2024-02-15T01:07:44;6.00;99.90
62991;DHT22;49084;48.204;16.202;2024-02-15T01:10:10;6.00;99.90
62991;DHT22;49084;48.204;16.202;2024-02-15T01:12:35;6.00;99.90
62991;DHT22;49084;48.204;16.202;2024-02-15T01:15:01;6.00;99.90
62991;DHT22;49084;48.204;16.202;2024-02-15T01:17:28;6.10;99.90
62991;DHT22;49084;48.204;16.202;2024-02-15T01:19:54;6.20;99.90
62991;DHT22;49084;48.204;16.202;2024-02-15T01:22:20;6.20;99.90
62991;DHT22;49084;48.204;16.202;2024-02-15T01:24:49;6.30;99.90
62991;DHT22;49084;48.204;16.202;2024-02-15T01:27:14;6.30;99.90
62991;DHT22;49084;48.204;16.202;2024-02-15T01:29:40;6.40;99.90
62991;DHT22;49084;48.204;16.202;2024-02-15T01:32:07;6.50;99.90
62991;DHT22;49084;48.204;16.202;2024-02-15T01:34:33;6.50;99.90
62991;DHT22;49084;48.204;16.202;2024-02-15T01:36:59;6.60;99.90
62991;DHT22;49084;48.204;16.202;2024-02-15T01:39:24;6.60;99.90
62991;DHT22;49084;48.204;16.202;2024-02-15T01:41:50;6.70;99.90
62991;DHT22;49084;48.204;16.202;2024-02-15T01:44:21;6.70;99.90
62991;DHT22;49084;48.204;16.202;2024-02-15T01:46:47;6.80;99.90
62991;DHT22;49084;48.204;16.202;2024-02-15T01:49:14;6.80;99.90
62991;DHT22;49084;48.204;16.202;2024-02-15T01:51:41;6.80;99.90
62991;DHT22;49084;48.204;16.202;2024-02-15T01:54:11;6.80;99.90
62991;DHT22;49084;48.204;16.202;2024-02-15T01:56:38;6.90;99.90
62991;DHT22;49084;48.204;16.202;2024-02-15T01:59:04;6.90;99.90
62991;DHT22;49084;48.204;16.202;2024-02-15T02:01:31;6.90;99.90
62991;DHT22;49084;48.204;16.202;2024-02-15T02:04:00;6.90;99.90
62991;DHT22;49084;48.204;16.202;2024-02-15T02:06:26;6.90;99.90
62991;DHT22;49084;48.204;16.202;2024-02-15T02:08:52;6.90;99.90
62991;DHT22;49084;48.204;16.202;2024-02-15T02:11:22;7.00;99.90
62991;DHT22;49084;48.204;16.202;2024-02-15T02:13:48;7.00;99.90
62991;DHT22;49084;48.204;16.202;2024-02-15T02:16:30;7.00;99.90
62991;DHT22;49084;48.204;16.202;2024-02-15T02:18:58;7.00;99.90
62991;DHT22;49084;48.204;16.202;2024-02-15T02:21:25;7.00;99.90
62991;DHT22;49084;48.204;16.202;2024-02-15T02:23:58;7.00;99.90
62991;DHT22;49084;48.204;16.202;2024-02-15T02:26:24;7.00;99.90
62991;DHT22;49084;48.204;16.202;2024-02-15T02:28:51;7.00;99.90
62991;DHT22;49084;48.204;16.202;2024-02-15T02:31:20;7.00;99.90
62991;DHT22;49084;48.204;16.202;2024-02-15T02:33:50;6.90;99.90
62991;DHT22;49084;48.204;16.202;2024-02-15T02:36:18;7.00;99.90
62991;DHT22;49084;48.204;16.202;2024-02-15T02:38:44;7.00;99.90
62991;DHT22;49084;48.204;16.202;2024-02-15T02:41:14;7.00;99.90
62991;DHT22;49084;48.204;16.202;2024-02-15T02:43:40;7.00;99.90
62991;DHT22;49084;48.204;16.202;2024-02-15T02:46:05;7.00;99.90
62991;DHT22;49084;48.204;16.202;2024-02-15T02:48:31;7.00;99.90
62991;DHT22;49084;48.204;16.202;2024-02-15T02:50:57;7.00;99.90
62991;DHT22;49084;48.204;16.202;2024-02-15T02:53:23;7.10;99.90
62991;DHT22;49084;48.204;16.202;2024-02-15T02:55:49;7.10;99.90
62991;DHT22;49084;48.204;16.202;2024-02-15T02:58:15;7.10;99.90
62991;DHT22;49084;48.204;16.202;2024-02-15T03:00:41;7.10;99.90
62991;DHT22;49084;48.204;16.202;2024-02-15T03:03:08;7.10;99.90
62991;DHT22;49084;48.204;16.202;2024-02-15T03:05:34;7.10;99.90
62991;DHT22;49084;48.204;16.202;2024-02-15T03:08:00;7.10;99.90
62991;DHT22;49084;48.204;16.202;2024-02-15T03:10:26;7.20;99.90
62991;DHT22;49084;48.204;16.202;2024-02-15T03:12:51;7.10;99.90
62991;DHT22;49084;48.204;16.202;2024-02-15T03:15:18;7.10;99.90
62991;DHT22;49084;48.204;16.202;2024-02-15T03:17:45;7.10;99.90
62991;DHT22;49084;48.204;16.202;2024-02-15T03:20:12;7.10;99.90
62991;DHT22;49084;48.204;16.202;2024-02-15T03:22:58;7.10;99.90
62991;DHT22;49084;48.204;16.202;2024-02-15T03:25:25;7.10;99.90
62991;DHT22;49084;48.204;16.202;2024-02-15T03:27:52;7.10;99.90
62991;DHT22;49084;48.204;16.202;2024-02-15T03:30:19;7.10;99.90
62991;DHT22;49084;48.204;16.202;2024-02-15T03:32:45;7.00;99.90
62991;DHT22;49084;48.204;16.202;2024-02-15T03:35:14;7.10;99.90
62991;DHT22;49084;48.204;16.202;2024-02-15T03:37:40;7.00;99.90
62991;DHT22;49084;48.204;16.202;2024-02-15T03:40:08;7.00;99.90
62991;DHT22;49084;48.204;16.202;2024-02-15T03:42:35;7.00;99.90
62991;DHT22;49084;48.204;16.202;2024-02-15T03:45:04;7.00;99.90
62991;DHT22;49084;48.204;16.202;2024-02-15T03:47:32;7.00;99.90
62991;DHT22;49084;48.204;16.202;2024-02-15T03:49:59;7.00;99.90
62991;DHT22;49084;48.204;16.202;2024-02-15T03:52:25;7.10;99.90
62991;DHT22;49084;48.204;16.202;2024-02-15T03:54:50;7.10;99.90
62991;DHT22;49084;48.204;16.202;2024-02-15T03:57:16;7.10;99.90
62991;DHT22;49084;48.204;16.202;2024-02-15T03:59:42;7.10;99.90
62991;DHT22;49084;48.204;16.202;2024-02-15T04:02:08;7.10;99.90
62991;DHT22;49084;48.204;16.202;2024-02-15T04:04:38;7.10;99.90
62991;DHT22;49084;48.204;16.202;2024-02-15T04:07:07;7.10;99.90
62991;DHT22;49084;48.204;16.202;2024-02-15T04:09:33;7.10;99.90
62991;DHT22;49084;48.204;16.202;2024-02-15T04:12:01;7.20;99.90
62991;DHT22;49084;48.204;16.202;2024-02-15T04:14:27;7.20;99.90
62991;DHT22;49084;48.204;16.202;2024-02-15T04:16:53;7.20;99.90
62991;DHT22;49084;48.204;16.202;2024-02-15T04:19:19;7.20;99.90
62991;DHT22;49084;48.204;16.202;2024-02-15T04:21:45;7.20;99.90
62991;DHT22;49084;48.204;16.202;2024-02-15T04:24:12;7.20;99.90
62991;DHT22;49084;48.204;16.202;2024-02-15T04:26:38;7.20;99.90
62991;DHT22;49084;48.204;16.202;2024-02-15T04:29:04;7.20;99.90
62991;DHT22;49084;48.204;16.202;2024-02-15T04:31:30;7.20;99.90
62991;DHT22;49084;48.204;16.202;2024-02-15T04:33:57;7.30;99.90
62991;DHT22;49084;48.204;16.202;2024-02-15T04:36:24;7.30;99.90
62991;DHT22;49084;48.204;16.202;2024-02-15T04:38:51;7.30;99.90
62991;DHT22;49084;48.204;16.202;2024-02-15T04:41:17;7.30;99.90
62991;DHT22;49084;48.204;16.202;2024-02-15T04:43:51;7.30;99.90
62991;DHT22;49084;48.204;16.202;2024-02-15T04:46:17;7.30;99.90
62991;DHT22;49084;48.204;16.202;2024-02-15T04:48:46;7.30;99.90
62991;DHT22;49084;48.204;16.202;2024-02-15T04:51:12;7.30;99.90
62991;DHT22;49084;48.204;16.202;2024-02-15T04:53:38;7.30;99.90
62991;DHT22;49084;48.204;16.202;2024-02-15T04:56:07;7.30;99.90
62991;DHT22;49084;48.204;16.202;2024-02-15T04:58:41;7.40;99.90
62991;DHT22;49084;48.204;16.202;2024-02-15T05:01:14;7.40;99.90
62991;DHT22;49084;48.204;16.202;2024-02-15T05:03:40;7.40;99.90
62991;DHT22;49084;48.204;16.202;2024-02-15T05:06:05;7.40;99.90
62991;DHT22;49084;48.204;16.202;2024-02-15T05:08:33;7.40;99.90
62991;DHT22;49084;48.204;16.202;2024-02-15T05:11:00;7.40;99.90
62991;DHT22;49084;48.204;16.202;2024-02-15T05:13:26;7.40;99.90
62991;DHT22;49084;48.204;16.202;2024-02-15T05:15:51;7.40;99.90
62991;DHT22;49084;48.204;16.202;2024-02-15T05:18:17;7.50;99.90
62991;DHT22;49084;48.204;16.202;2024-02-15T05:20:43;7.50;99.90
62991;DHT22;49084;48.204;16.202;2024-02-15T05:23:09;7.50;99.90
62991;DHT22;49084;48.204;16.202;2024-02-15T05:25:35;7.50;99.90
62991;DHT22;49084;48.204;16.202;2024-02-15T05:28:01;7.60;99.90
62991;DHT22;49084;48.204;16.202;2024-02-15T05:30:26;7.60;99.90
62991;DHT22;49084;48.204;16.202;2024-02-15T05:32:52;7.60;99.90
62991;DHT22;49084;48.204;16.202;2024-02-15T05:35:18;7.60;99.90
62991;DHT22;49084;48.204;16.202;2024-02-15T05:37:44;7.60;99.90
62991;DHT22;49084;48.204;16.202;2024-02-15T05:40:12;7.50;99.90
62991;DHT22;49084;48.204;16.202;2024-02-15T05:42:43;7.60;99.90
62991;DHT22;49084;48.204;16.202;2024-02-15T05:45:28;7.60;99.90
62991;DHT22;49084;48.204;16.202;2024-02-15T05:48:02;7.60;99.90
62991;DHT22;49084;48.204;16.202;2024-02-15T05:50:27;7.60;99.90
62991;DHT22;49084;48.204;16.202;2024-02-15T05:52:55;7.60;99.90
62991;DHT22;49084;48.204;16.202;2024-02-15T05:55:21;7.60;99.90
62991;DHT22;49084;48.204;16.202;2024-02-15T05:57:46;7.60;99.90
62991;DHT22;49084;48.204;16.202;2024-02-15T06:00:12;7.60;99.90
62991;DHT22;49084;48.204;16.202;2024-02-15T06:02:38;7.60;99.90
62991;DHT22;49084;48.204;16.202;2024-02-15T06:05:05;7.60;99.90
62991;DHT22;49084;48.204;16.202;2024-02-15T06:07:30;7.60;99.90
62991;DHT22;49084;48.204;16.202;2024-02-15T06:09:59;7.60;99.90
62991;DHT22;49084;48.204;16.202;2024-02-15T06:12:29;7.50;99.90
62991;DHT22;49084;48.204;16.202;2024-02-15T06:14:55;7.50;99.90
62991;DHT22;49084;48.204;16.202;2024-02-15T06:17:21;7.50;99.90
62991;DHT22;49084;48.204;16.202;2024-02-15T06:19:46;7.40;99.90
62991;DHT22;49084;48.204;16.202;2024-02-15T06:22:12;7.50;99.90
62991;DHT22;49084;48.204;16.202;2024-02-15T06:24:38;7.40;99.90
62991;DHT22;49084;48.204;16.202;2024-02-15T06:27:05;7.40;99.90
62991;DHT22;49084;48.204;16.202;2024-02-15T06:29:31;7.50;99.90
62991;DHT22;49084;48.204;16.202;2024-02-15T06:32:15;7.50;99.90
62991;DHT22;49084;48.204;16.202;2024-02-15T06:34:59;7.50;99.90
62991;DHT22;49084;48.204;16.202;2024-02-15T06:37:43;7.60;99.90
62991;DHT22;49084;48.204;16.202;2024-02-15T06:40:27;7.60;99.90
62991;DHT22;49084;48.204;16.202;2024-02-15T06:42:54;7.70;99.90
62991;DHT22;49084;48.204;16.202;2024-02-15T06:45:19;7.80;99.90
62991;DHT22;49084;48.204;16.202;2024-02-15T06:47:45;7.90;99.90
62991;DHT22;49084;48.204;16.202;2024-02-15T06:50:12;7.90;99.90
62991;DHT22;49084;48.204;16.202;2024-02-15T06:52:39;7.90;99.90
62991;DHT22;49084;48.204;16.202;2024-02-15T06:55:09;8.00;99.90
62991;DHT22;49084;48.204;16.202;2024-02-15T06:57:38;8.00;99.90
62991;DHT22;49084;48.204;16.202;2024-02-15T07:00:06;8.00;99.90
62991;DHT22;49084;48.204;16.202;2024-02-15T07:02:39;8.00;99.90
62991;DHT22;49084;48.204;16.202;2024-02-15T07:05:06;8.10;99.90
62991;DHT22;49084;48.204;16.202;2024-02-15T07:07:32;8.10;99.90
62991;DHT22;49084;48.204;16.202;2024-02-15T07:09:59;8.10;99.90
62991;DHT22;49084;48.204;16.202;2024-02-15T07:12:28;8.20;99.90
62991;DHT22;49084;48.204;16.202;2024-02-15T07:14:53;8.20;99.90
62991;DHT22;49084;48.204;16.202;2024-02-15T07:17:20;8.30;99.90
62991;DHT22;49084;48.204;16.202;2024-02-15T07:19:46;8.30;99.90
62991;DHT22;49084;48.204;16.202;2024-02-15T07:22:15;8.30;99.90
62991;DHT22;49084;48.204;16.202;2024-02-15T07:24:40;8.40;99.90
62991;DHT22;49084;48.204;16.202;2024-02-15T07:27:06;8.40;99.90
62991;DHT22;49084;48.204;16.202;2024-02-15T07:29:32;8.50;99.90
62991;DHT22;49084;48.204;16.202;2024-02-15T07:32:00;8.50;99.90
62991;DHT22;49084;48.204;16.202;2024-02-15T07:34:27;8.60;99.90
62991;DHT22;49084;48.204;16.202;2024-02-15T07:36:53;8.60;99.90
62991;DHT22;49084;48.204;16.202;2024-02-15T07:39:18;8.60;99.90
62991;DHT22;49084;48.204;16.202;2024-02-15T07:41:54;8.70;99.90
62991;DHT22;49084;48.204;16.202;2024-02-15T07:44:20;8.80;99.90
62991;DHT22;49084;48.204;16.202;2024-02-15T07:46:47;8.80;99.90
62991;DHT22;49084;48.204;16.202;2024-02-15T07:49:13;8.80;99.90
62991;DHT22;49084;48.204;16.202;2024-02-15T07:51:39;8.90;99.90
62991;DHT22;49084;48.204;16.202;2024-02-15T07:54:04;9.00;99.90
62991;DHT22;49084;48.204;16.202;2024-02-15T07:56:30;9.10;99.90
62991;DHT22;49084;48.204;16.202;2024-02-15T07:58:56;9.20;99.90
62991;DHT22;49084;48.204;16.202;2024-02-15T08:01:22;9.30;99.90
62991;DHT22;49084;48.204;16.202;2024-02-15T08:03:48;9.50;99.90
62991;DHT22;49084;48.204;16.202;2024-02-15T08:06:15;9.60;99.90
62991;DHT22;49084;48.204;16.202;2024-02-15T08:08:42;9.70;99.90
62991;DHT22;49084;48.204;16.202;2024-02-15T08:11:08;9.80;99.90
62991;DHT22;49084;48.204;16.202;2024-02-15T08:13:47;9.80;99.90
62991;DHT22;49084;48.204;16.202;2024-02-15T08:16:19;9.80;99.90
62991;DHT22;49084;48.204;16.202;2024-02-15T08:18:46;9.90;99.90
62991;DHT22;49084;48.204;16.202;2024-02-15T08:21:12;9.90;99.90
62991;DHT22;49084;48.204;16.202;2024-02-15T08:23:37;9.90;99.90
62991;DHT22;49084;48.204;16.202;2024-02-15T08:26:04;9.90;99.90
62991;DHT22;49084;48.204;16.202;2024-02-15T08:28:29;10.00;99.90
62991;DHT22;49084;48.204;16.202;2024-02-15T08:30:55;10.00;99.90
62991;DHT22;49084;48.204;16.202;2024-02-15T08:33:23;10.00;99.90
62991;DHT22;49084;48.204;16.202;2024-02-15T08:35:49;10.10;99.90
62991;DHT22;49084;48.204;16.202;2024-02-15T08:38:15;10.10;99.90
62991;DHT22;49084;48.204;16.202;2024-02-15T08:40:40;10.20;99.90
62991;DHT22;49084;48.204;16.202;2024-02-15T08:43:06;10.20;99.90
62991;DHT22;49084;48.204;16.202;2024-02-15T08:45:32;10.20;99.90
62991;DHT22;49084;48.204;16.202;2024-02-15T08:47:57;10.20;99.90
62991;DHT22;49084;48.204;16.202;2024-02-15T08:50:23;10.20;99.90
62991;DHT22;49084;48.204;16.202;2024-02-15T08:52:49;10.30;99.90
62991;DHT22;49084;48.204;16.202;2024-02-15T08:55:15;10.30;99.90
62991;DHT22;49084;48.204;16.202;2024-02-15T08:57:42;10.30;99.90
62991;DHT22;49084;48.204;16.202;2024-02-15T09:00:10;10.30;99.90
62991;DHT22;49084;48.204;16.202;2024-02-15T09:02:48;10.40;99.90
62991;DHT22;49084;48.204;16.202;2024-02-15T09:05:18;10.40;99.90
62991;DHT22;49084;48.204;16.202;2024-02-15T09:07:45;10.40;99.90
62991;DHT22;49084;48.204;16.202;2024-02-15T09:10:14;10.50;99.90
62991;DHT22;49084;48.204;16.202;2024-02-15T09:12:43;10.50;99.90
62991;DHT22;49084;48.204;16.202;2024-02-15T09:15:10;10.50;99.90
62991;DHT22;49084;48.204;16.202;2024-02-15T09:17:36;10.50;99.90
62991;DHT22;49084;48.204;16.202;2024-02-15T09:20:09;10.60;99.90
62991;DHT22;49084;48.204;16.202;2024-02-15T09:25:14;10.80;99.90
62991;DHT22;49084;48.204;16.202;2024-02-15T09:27:40;11.00;99.90
62991;DHT22;49084;48.204;16.202;2024-02-15T09:30:06;11.20;99.90
62991;DHT22;49084;48.204;16.202;2024-02-15T09:32:40;11.50;99.90
62991;DHT22;49084;48.204;16.202;2024-02-15T09:35:07;11.70;99.90
62991;DHT22;49084;48.204;16.202;2024-02-15T09:37:46;11.90;99.90
62991;DHT22;49084;48.204;16.202;2024-02-15T09:40:16;11.90;99.90
62991;DHT22;49084;48.204;16.202;2024-02-15T09:42:43;12.00;99.90
62991;DHT22;49084;48.204;16.202;2024-02-15T09:45:12;12.00;99.90
62991;DHT22;49084;48.204;16.202;2024-02-15T09:47:38;12.10;99.90
62991;DHT22;49084;48.204;16.202;2024-02-15T09:50:08;12.20;99.90
62991;DHT22;49084;48.204;16.202;2024-02-15T09:52:38;12.30;99.90
62991;DHT22;49084;48.204;16.202;2024-02-15T09:55:04;12.50;99.90
62991;DHT22;49084;48.204;16.202;2024-02-15T09:57:30;12.60;99.90
62991;DHT22;49084;48.204;16.202;2024-02-15T10:00:00;12.60;99.90
62991;DHT22;49084;48.204;16.202;2024-02-15T10:02:28;12.60;99.90
62991;DHT22;49084;48.204;16.202;2024-02-15T10:04:54;12.70;99.90
62991;DHT22;49084;48.204;16.202;2024-02-15T10:07:25;12.70;99.90
62991;DHT22;49084;48.204;16.202;2024-02-15T10:09:52;12.90;99.90
62991;DHT22;49084;48.204;16.202;2024-02-15T10:12:18;13.00;99.90
62991;DHT22;49084;48.204;16.202;2024-02-15T10:14:51;13.40;99.90
62991;DHT22;49084;48.204;16.202;2024-02-15T10:17:20;14.00;99.90
62991;DHT22;49084;48.204;16.202;2024-02-15T10:20:03;14.80;99.90
62991;DHT22;49084;48.204;16.202;2024-02-15T10:22:30;15.40;99.90
62991;DHT22;49084;48.204;16.202;2024-02-15T10:25:11;15.60;99.90
62991;DHT22;49084;48.204;16.202;2024-02-15T10:27:36;15.40;99.90
62991;DHT22;49084;48.204;16.202;2024-02-15T10:30:19;15.50;99.90
62991;DHT22;49084;48.204;16.202;2024-02-15T10:32:46;15.40;99.90
62991;DHT22;49084;48.204;16.202;2024-02-15T10:35:21;15.20;99.90
62991;DHT22;49084;48.204;16.202;2024-02-15T10:37:51;15.10;99.90
62991;DHT22;49084;48.204;16.202;2024-02-15T10:40:22;15.10;99.90
62991;DHT22;49084;48.204;16.202;2024-02-15T10:42:49;15.00;99.90
62991;DHT22;49084;48.204;16.202;2024-02-15T10:45:16;14.90;99.90
62991;DHT22;49084;48.204;16.202;2024-02-15T10:47:45;14.90;99.90
62991;DHT22;49084;48.204;16.202;2024-02-15T10:50:13;14.80;99.90
62991;DHT22;49084;48.204;16.202;2024-02-15T10:52:48;14.90;99.90
62991;DHT22;49084;48.204;16.202;2024-02-15T10:55:26;14.80;99.90
62991;DHT22;49084;48.204;16.202;2024-02-15T10:58:01;15.10;99.90
62991;DHT22;49084;48.204;16.202;2024-02-15T11:00:33;15.80;99.90
62991;DHT22;49084;48.204;16.202;2024-02-15T11:03:03;16.10;99.90
62991;DHT22;49084;48.204;16.202;2024-02-15T11:05:35;16.70;99.90
62991;DHT22;49084;48.204;16.202;2024-02-15T11:08:07;17.60;99.90
62991;DHT22;49084;48.204;16.202;2024-02-15T11:10:37;18.60;99.90
62991;DHT22;49084;48.204;16.202;2024-02-15T11:13:04;19.00;98.70
62991;DHT22;49084;48.204;16.202;2024-02-15T11:15:40;19.10;97.50
62991;DHT22;49084;48.204;16.202;2024-02-15T11:18:06;19.10;97.00
62991;DHT22;49084;48.204;16.202;2024-02-15T11:22:58;19.30;95.50
62991;DHT22;49084;48.204;16.202;2024-02-15T11:25:34;18.90;95.40
62991;DHT22;49084;48.204;16.202;2024-02-15T11:30:50;17.80;96.70
62991;DHT22;49084;48.204;16.202;2024-02-15T11:38:33;17.00;98.80
62991;DHT22;49084;48.204;16.202;2024-02-15T11:43:45;16.90;99.40
62991;DHT22;49084;48.204;16.202;2024-02-15T11:46:15;17.00;99.30
62991;DHT22;49084;48.204;16.202;2024-02-15T11:48:41;16.90;99.70
62991;DHT22;49084;48.204;16.202;2024-02-15T11:51:07;17.10;99.80
62991;DHT22;49084;48.204;16.202;2024-02-15T11:53:39;17.40;99.30
62991;DHT22;49084;48.204;16.202;2024-02-15T11:56:05;17.40;98.80
62991;DHT22;49084;48.204;16.202;2024-02-15T11:58:34;17.30;99.00
62991;DHT22;49084;48.204;16.202;2024-02-15T12:01:17;17.20;99.00
62991;DHT22;49084;48.204;16.202;2024-02-15T12:04:02;17.20;99.60
62991;DHT22;49084;48.204;16.202;2024-02-15T12:06:46;17.10;99.50
62991;DHT22;49084;48.204;16.202;2024-02-15T12:09:31;17.00;99.70
62991;DHT22;49084;48.204;16.202;2024-02-15T12:12:15;16.90;99.90
62991;DHT22;49084;48.204;16.202;2024-02-15T12:15:03;16.90;99.90
62991;DHT22;49084;48.204;16.202;2024-02-15T12:17:47;17.10;99.90
62991;DHT22;49084;48.204;16.202;2024-02-15T12:20:32;18.00;99.20
62991;DHT22;49084;48.204;16.202;2024-02-15T12:22:58;18.10;97.90
62991;DHT22;49084;48.204;16.202;2024-02-15T12:25:26;18.00;98.00
62991;DHT22;49084;48.204;16.202;2024-02-15T12:27:54;17.80;98.40
62991;DHT22;49084;48.204;16.202;2024-02-15T12:30:20;17.50;98.50
62991;DHT22;49084;48.204;16.202;2024-02-15T12:32:48;17.50;98.70
62991;DHT22;49084;48.204;16.202;2024-02-15T12:35:15;17.50;98.70
62991;DHT22;49084;48.204;16.202;2024-02-15T12:38:03;17.80;98.50
62991;DHT22;49084;48.204;16.202;2024-02-15T12:40:36;18.60;96.80
62991;DHT22;49084;48.204;16.202;2024-02-15T12:43:04;20.10;94.90
62991;DHT22;49084;48.204;16.202;2024-02-15T12:45:39;21.90;91.70
62991;DHT22;49084;48.204;16.202;2024-02-15T12:48:06;21.60;88.10
62991;DHT22;49084;48.204;16.202;2024-02-15T12:50:32;20.40;88.10
62991;DHT22;49084;48.204;16.202;2024-02-15T12:52:58;19.60;90.30
62991;DHT22;49084;48.204;16.202;2024-02-15T12:55:32;19.20;90.90
62991;DHT22;49084;48.204;16.202;2024-02-15T12:58:04;19.20;91.20
62991;DHT22;49084;48.204;16.202;2024-02-15T13:00:34;19.70;90.60
62991;DHT22;49084;48.204;16.202;2024-02-15T13:03:04;20.00;89.90
62991;DHT22;49084;48.204;16.202;2024-02-15T13:05:31;19.60;90.00
62991;DHT22;49084;48.204;16.202;2024-02-15T13:07:57;19.40;90.40
62991;DHT22;49084;48.204;16.202;2024-02-15T13:10:30;19.10;90.60
62991;DHT22;49084;48.204;16.202;2024-02-15T13:12:57;18.80;91.20
62991;DHT22;49084;48.204;16.202;2024-02-15T13:15:24;19.30;91.10
62991;DHT22;49084;48.204;16.202;2024-02-15T13:17:56;20.30;89.80
62991;DHT22;49084;48.204;16.202;2024-02-15T13:20:26;20.50;87.20
62991;DHT22;49084;48.204;16.202;2024-02-15T13:23:08;20.70;86.40
62991;DHT22;49084;48.204;16.202;2024-02-15T13:25:35;20.90;87.00
62991;DHT22;49084;48.204;16.202;2024-02-15T13:28:02;20.70;84.50
62991;DHT22;49084;48.204;16.202;2024-02-15T13:30:29;20.00;86.20
62991;DHT22;49084;48.204;16.202;2024-02-15T13:32:55;19.90;87.70
62991;DHT22;49084;48.204;16.202;2024-02-15T13:35:21;20.30;86.30
62991;DHT22;49084;48.204;16.202;2024-02-15T13:37:53;20.40;85.90
62991;DHT22;49084;48.204;16.202;2024-02-15T13:40:22;20.40;85.70
62991;DHT22;49084;48.204;16.202;2024-02-15T13:42:55;19.90;86.00
62991;DHT22;49084;48.204;16.202;2024-02-15T13:45:27;19.70;86.80
62991;DHT22;49084;48.204;16.202;2024-02-15T13:48:00;20.30;85.70
62991;DHT22;49084;48.204;16.202;2024-02-15T13:50:28;21.10;82.90
62991;DHT22;49084;48.204;16.202;2024-02-15T13:52:55;21.80;80.20
62991;DHT22;49084;48.204;16.202;2024-02-15T13:55:20;21.90;78.70
62991;DHT22;49084;48.204;16.202;2024-02-15T13:57:47;21.80;77.90
62991;DHT22;49084;48.204;16.202;2024-02-15T14:00:15;21.90;76.60
62991;DHT22;49084;48.204;16.202;2024-02-15T14:02:56;21.70;76.40
62991;DHT22;49084;48.204;16.202;2024-02-15T14:05:24;21.40;76.70
62991;DHT22;49084;48.204;16.202;2024-02-15T14:07:51;21.40;76.50
62991;DHT22;49084;48.204;16.202;2024-02-15T14:10:24;21.50;75.90
62991;DHT22;49084;48.204;16.202;2024-02-15T14:12:51;21.40;74.10
62991;DHT22;49084;48.204;16.202;2024-02-15T14:15:38;21.00;74.50
62991;DHT22;49084;48.204;16.202;2024-02-15T14:18:07;20.90;75.40
62991;DHT22;49084;48.204;16.202;2024-02-15T14:20:36;20.60;74.50
62991;DHT22;49084;48.204;16.202;2024-02-15T14:23:02;20.40;75.40
62991;DHT22;49084;48.204;16.202;2024-02-15T14:25:31;20.30;75.60
62991;DHT22;49084;48.204;16.202;2024-02-15T14:27:58;20.10;75.40
62991;DHT22;49084;48.204;16.202;2024-02-15T14:30:25;19.90;75.70
62991;DHT22;49084;48.204;16.202;2024-02-15T14:33:09;19.50;76.20
62991;DHT22;49084;48.204;16.202;2024-02-15T14:35:39;18.90;77.50
62991;DHT22;49084;48.204;16.202;2024-02-15T14:38:12;18.60;78.30
62991;DHT22;49084;48.204;16.202;2024-02-15T14:40:40;18.30;78.90
62991;DHT22;49084;48.204;16.202;2024-02-15T14:43:06;18.00;79.50
62991;DHT22;49084;48.204;16.202;2024-02-15T14:45:36;17.70;80.00
62991;DHT22;49084;48.204;16.202;2024-02-15T14:48:06;17.50;80.70
62991;DHT22;49084;48.204;16.202;2024-02-15T14:50:35;17.40;81.30
62991;DHT22;49084;48.204;16.202;2024-02-15T14:53:01;17.50;81.50
62991;DHT22;49084;48.204;16.202;2024-02-15T14:55:26;17.40;81.40
62991;DHT22;49084;48.204;16.202;2024-02-15T14:57:52;17.40;80.90
62991;DHT22;49084;48.204;16.202;2024-02-15T15:00:18;17.30;81.60
62991;DHT22;49084;48.204;16.202;2024-02-15T15:02:46;17.40;81.90
62991;DHT22;49084;48.204;16.202;2024-02-15T15:05:13;17.40;81.20
62991;DHT22;49084;48.204;16.202;2024-02-15T15:07:57;17.30;81.30
62991;DHT22;49084;48.204;16.202;2024-02-15T15:10:41;16.90;81.80
62991;DHT22;49084;48.204;16.202;2024-02-15T15:13:25;16.50;83.10
62991;DHT22;49084;48.204;16.202;2024-02-15T15:15:51;16.10;84.50
62991;DHT22;49084;48.204;16.202;2024-02-15T15:18:17;15.80;85.20
62991;DHT22;49084;48.204;16.202;2024-02-15T15:20:44;15.70;86.00
62991;DHT22;49084;48.204;16.202;2024-02-15T15:23:10;15.50;86.60
62991;DHT22;49084;48.204;16.202;2024-02-15T15:25:36;15.30;87.50
62991;DHT22;49084;48.204;16.202;2024-02-15T15:28:03;15.10;87.90
62991;DHT22;49084;48.204;16.202;2024-02-15T15:30:30;14.90;88.40
62991;DHT22;49084;48.204;16.202;2024-02-15T15:32:56;14.70;89.20
62991;DHT22;49084;48.204;16.202;2024-02-15T15:35:23;14.50;90.20
62991;DHT22;49084;48.204;16.202;2024-02-15T15:37:49;14.10;90.70
62991;DHT22;49084;48.204;16.202;2024-02-15T15:40:18;14.00;91.00
62991;DHT22;49084;48.204;16.202;2024-02-15T15:42:45;13.90;91.30
62991;DHT22;49084;48.204;16.202;2024-02-15T15:45:10;13.70;91.50
62991;DHT22;49084;48.204;16.202;2024-02-15T15:47:36;13.50;91.80
62991;DHT22;49084;48.204;16.202;2024-02-15T15:50:04;13.40;92.10